sensor_id;sensor_type;location;lat;lon;timestamp;temperature;humidity
19437;DHT22;9854;50.968;4.168;2022-10-31T00:01:36;16.30;99.90
19437;DHT22;9854;50.968;4.168;2022-10-31T00:04:02;16.20;99.90
19437;DHT22;9854;50.968;4.168;2022-10-31T00:06:28;16.30;99.90
19437;DHT22;9854;50.968;4.168;2022-10-31T00:08:55;16.20;99.90
19437;DHT22;9854;50.968;4.168;2022-10-31T00:11:21;16.20;99.90
19437;DHT22;9854;50.968;4.168;2022-10-31T00:13:47;16.10;99.90
19437;DHT22;9854;50.968;4.168;2022-10-31T00:16:17;16.00;99.90
19437;DHT22;9854;50.968;4.168;2022-10-31T00:18:43;16.00;99.90
19437;DHT22;9854;50.968;4.168;2022-10-31T00:21:09;15.90;99.90
19437;DHT22;9854;50.968;4.168;2022-10-31T00:23:34;15.70;99.90
19437;DHT22;9854;50.968;4.168;2022-10-31T00:26:04;15.60;99.90
19437;DHT22;9854;50.968;4.168;2022-10-31T00:28:30;15.50;99.90
19437;DHT22;9854;50.968;4.168;2022-10-31T00:31:05;15.40;99.90
19437;DHT22;9854;50.968;4.168;2022-10-31T00:33:34;15.40;99.90
19437;DHT22;9854;50.968;4.168;2022-10-31T00:35:59;15.30;99.90
19437;DHT22;9854;50.968;4.168;2022-10-31T00:38:25;15.30;99.90
19437;DHT22;9854;50.968;4.168;2022-10-31T00:40:51;15.30;99.90
19437;DHT22;9854;50.968;4.168;2022-10-31T00:43:16;15.20;99.90
19437;DHT22;9854;50.968;4.168;2022-10-31T00:45:42;15.20;99.90
19437;DHT22;9854;50.968;4.168;2022-10-31T00:48:09;15.20;99.90
19437;DHT22;9854;50.968;4.168;2022-10-31T00:50:35;15.60;99.90
19437;DHT22;9854;50.968;4.168;2022-10-31T00:53:00;15.60;99.90
19437;DHT22;9854;50.968;4.168;2022-10-31T00:55:26;15.40;99.90
19437;DHT22;9854;50.968;4.168;2022-10-31T00:57:51;15.20;99.90
19437;DHT22;9854;50.968;4.168;2022-10-31T01:00:17;15.30;99.90
19437;DHT22;9854;50.968;4.168;2022-10-31T01:02:43;15.30;99.90
19437;DHT22;9854;50.968;4.168;2022-10-31T01:05:08;15.20;99.90
19437;DHT22;9854;50.968;4.168;2022-10-31T01:07:38;15.00;99.90
19437;DHT22;9854;50.968;4.168;2022-10-31T01:10:05;15.00;99.90
19437;DHT22;9854;50.968;4.168;2022-10-31T01:12:39;14.90;99.90
19437;DHT22;9854;50.968;4.168;2022-10-31T01:15:05;14.90;99.90
19437;DHT22;9854;50.968;4.168;2022-10-31T01:17:31;14.90;99.90
19437;DHT22;9854;50.968;4.168;2022-10-31T01:19:57;14.90;99.90
19437;DHT22;9854;50.968;4.168;2022-10-31T01:22:22;15.00;99.90
19437;DHT22;9854;50.968;4.168;2022-10-31T01:24:48;15.00;99.90
19437;DHT22;9854;50.968;4.168;2022-10-31T01:27:14;14.80;99.90
19437;DHT22;9854;50.968;4.168;2022-10-31T01:29:39;14.80;99.90
19437;DHT22;9854;50.968;4.168;2022-10-31T01:32:05;14.80;99.90
19437;DHT22;9854;50.968;4.168;2022-10-31T01:34:30;14.70;99.90
19437;DHT22;9854;50.968;4.168;2022-10-31T01:36:56;14.60;99.90
19437;DHT22;9854;50.968;4.168;2022-10-31T01:39:22;14.80;99.90
19437;DHT22;9854;50.968;4.168;2022-10-31T01:41:50;14.70;99.90
19437;DHT22;9854;50.968;4.168;2022-10-31T01:46:58;14.60;99.90
19437;DHT22;9854;50.968;4.168;2022-10-31T01:49:46;14.60;99.90
19437;DHT22;9854;50.968;4.168;2022-10-31T01:54:42;14.50;99.90
19437;DHT22;9854;50.968;4.168;2022-10-31T01:57:13;14.50;99.90
19437;DHT22;9854;50.968;4.168;2022-10-31T01:59:51;14.60;99.90
19437;DHT22;9854;50.968;4.168;2022-10-31T02:02:19;14.90;99.90
19437;DHT22;9854;50.968;4.168;2022-10-31T02:04:46;14.90;99.90
19437;DHT22;9854;50.968;4.168;2022-10-31T02:07:16;14.90;99.90
19437;DHT22;9854;50.968;4.168;2022-10-31T02:09:45;15.10;99.90
19437;DHT22;9854;50.968;4.168;2022-10-31T02:12:12;14.90;99.90
19437;DHT22;9854;50.968;4.168;2022-10-31T02:14:39;14.80;99.90
19437;DHT22;9854;50.968;4.168;2022-10-31T02:17:05;14.70;99.90
19437;DHT22;9854;50.968;4.168;2022-10-31T02:22:05;14.40;99.90
19437;DHT22;9854;50.968;4.168;2022-10-31T02:30:21;14.40;99.90
19437;DHT22;9854;50.968;4.168;2022-10-31T02:41:51;14.30;99.90
19437;DHT22;9854;50.968;4.168;2022-10-31T02:44:22;14.30;99.90
19437;DHT22;9854;50.968;4.168;2022-10-31T02:46:59;14.10;99.90
19437;DHT22;9854;50.968;4.168;2022-10-31T02:52:13;14.10;99.90
19437;DHT22;9854;50.968;4.168;2022-10-31T02:54:39;14.20;99.90
19437;DHT22;9854;50.968;4.168;2022-10-31T02:57:07;14.20;99.90
19437;DHT22;9854;50.968;4.168;2022-10-31T02:59:34;14.20;99.90
19437;DHT22;9854;50.968;4.168;2022-10-31T03:05:12;14.10;99.90
19437;DHT22;9854;50.968;4.168;2022-10-31T03:10:39;14.10;99.90
19437;DHT22;9854;50.968;4.168;2022-10-31T03:13:18;14.00;99.90
19437;DHT22;9854;50.968;4.168;2022-10-31T03:15:50;13.90;99.90
19437;DHT22;9854;50.968;4.168;2022-10-31T03:18:23;13.80;99.90
19437;DHT22;9854;50.968;4.168;2022-10-31T03:20:56;13.70;99.90
19437;DHT22;9854;50.968;4.168;2022-10-31T03:37:07;13.50;99.90
19437;DHT22;9854;50.968;4.168;2022-10-31T03:39:36;13.40;99.90
19437;DHT22;9854;50.968;4.168;2022-10-31T03:42:08;13.30;99.90
19437;DHT22;9854;50.968;4.168;2022-10-31T03:44:35;13.30;99.90
19437;DHT22;9854;50.968;4.168;2022-10-31T03:47:03;13.30;99.90
19437;DHT22;9854;50.968;4.168;2022-10-31T03:49:30;13.40;99.90
19437;DHT22;9854;50.968;4.168;2022-10-31T03:52:28;13.30;99.90
19437;DHT22;9854;50.968;4.168;2022-10-31T03:55:09;13.20;99.90
19437;DHT22;9854;50.968;4.168;2022-10-31T03:57:49;13.20;99.90
19437;DHT22;9854;50.968;4.168;2022-10-31T04:00:17;13.10;99.90
19437;DHT22;9854;50.968;4.168;2022-10-31T04:02:50;13.10;99.90
19437;DHT22;9854;50.968;4.168;2022-10-31T04:05:19;13.10;99.90
19437;DHT22;9854;50.968;4.168;2022-10-31T04:07:47;13.10;99.90
19437;DHT22;9854;50.968;4.168;2022-10-31T04:10:15;13.10;99.90
19437;DHT22;9854;50.968;4.168;2022-10-31T04:12:44;13.10;99.90
19437;DHT22;9854;50.968;4.168;2022-10-31T04:15:13;13.10;99.90
19437;DHT22;9854;50.968;4.168;2022-10-31T04:17:41;13.10;99.90
19437;DHT22;9854;50.968;4.168;2022-10-31T04:20:09;13.00;99.90
19437;DHT22;9854;50.968;4.168;2022-10-31T04:22:34;13.00;99.90
19437;DHT22;9854;50.968;4.168;2022-10-31T04:25:00;12.90;99.90
19437;DHT22;9854;50.968;4.168;2022-10-31T04:27:25;12.80;99.90
19437;DHT22;9854;50.968;4.168;2022-10-31T04:29:51;12.80;99.90
19437;DHT22;9854;50.968;4.168;2022-10-31T04:32:17;12.70;99.90
19437;DHT22;9854;50.968;4.168;2022-10-31T04:34:43;12.80;99.90
19437;DHT22;9854;50.968;4.168;2022-10-31T04:37:08;12.70;99.90
19437;DHT22;9854;50.968;4.168;2022-10-31T04:39:34;12.70;99.90
19437;DHT22;9854;50.968;4.168;2022-10-31T04:41:59;12.80;99.90
19437;DHT22;9854;50.968;4.168;2022-10-31T04:44:25;12.70;99.90
19437;DHT22;9854;50.968;4.168;2022-10-31T04:46:50;12.70;99.90
19437;DHT22;9854;50.968;4.168;2022-10-31T04:49:16;12.70;99.90
19437;DHT22;9854;50.968;4.168;2022-10-31T04:51:42;12.70;99.90
19437;DHT22;9854;50.968;4.168;2022-10-31T04:54:07;12.80;99.90
19437;DHT22;9854;50.968;4.168;2022-10-31T04:56:33;12.90;99.90
19437;DHT22;9854;50.968;4.168;2022-10-31T04:58:58;12.90;99.90
19437;DHT22;9854;50.968;4.168;2022-10-31T05:01:24;12.90;99.90
19437;DHT22;9854;50.968;4.168;2022-10-31T05:03:50;12.90;99.90
19437;DHT22;9854;50.968;4.168;2022-10-31T05:06:15;13.00;99.90
19437;DHT22;9854;50.968;4.168;2022-10-31T05:08:41;12.90;99.90
19437;DHT22;9854;50.968;4.168;2022-10-31T05:11:07;12.90;99.90
19437;DHT22;9854;50.968;4.168;2022-10-31T05:13:33;12.90;99.90
19437;DHT22;9854;50.968;4.168;2022-10-31T05:15:58;12.90;99.90
19437;DHT22;9854;50.968;4.168;2022-10-31T05:18:24;12.90;99.90
19437;DHT22;9854;50.968;4.168;2022-10-31T05:20:49;13.00;99.90
19437;DHT22;9854;50.968;4.168;2022-10-31T05:23:15;13.30;99.90
19437;DHT22;9854;50.968;4.168;2022-10-31T05:25:41;13.60;99.90
19437;DHT22;9854;50.968;4.168;2022-10-31T05:28:07;13.70;99.90
19437;DHT22;9854;50.968;4.168;2022-10-31T05:30:33;13.50;99.90
19437;DHT22;9854;50.968;4.168;2022-10-31T05:32:59;13.20;99.90
19437;DHT22;9854;50.968;4.168;2022-10-31T05:35:28;13.00;99.90
19437;DHT22;9854;50.968;4.168;2022-10-31T05:37:53;12.80;99.90
19437;DHT22;9854;50.968;4.168;2022-10-31T05:40:20;12.80;99.90
19437;DHT22;9854;50.968;4.168;2022-10-31T05:42:47;12.80;99.90
19437;DHT22;9854;50.968;4.168;2022-10-31T05:45:15;12.80;99.90
19437;DHT22;9854;50.968;4.168;2022-10-31T05:47:42;12.80;99.90
19437;DHT22;9854;50.968;4.168;2022-10-31T05:50:09;12.90;99.90
19437;DHT22;9854;50.968;4.168;2022-10-31T05:52:35;12.90;99.90
19437;DHT22;9854;50.968;4.168;2022-10-31T05:55:00;13.00;99.90
19437;DHT22;9854;50.968;4.168;2022-10-31T05:57:26;13.00;99.90
19437;DHT22;9854;50.968;4.168;2022-10-31T05:59:51;13.20;99.90
19437;DHT22;9854;50.968;4.168;2022-10-31T06:02:21;13.30;99.90
19437;DHT22;9854;50.968;4.168;2022-10-31T06:04:47;13.40;99.90
19437;DHT22;9854;50.968;4.168;2022-10-31T06:07:13;13.80;99.90
19437;DHT22;9854;50.968;4.168;2022-10-31T06:09:38;13.70;99.90
19437;DHT22;9854;50.968;4.168;2022-10-31T06:12:04;13.60;99.90
19437;DHT22;9854;50.968;4.168;2022-10-31T06:14:30;13.80;99.90
19437;DHT22;9854;50.968;4.168;2022-10-31T06:16:55;13.70;99.90
19437;DHT22;9854;50.968;4.168;2022-10-31T06:19:21;13.60;99.90
19437;DHT22;9854;50.968;4.168;2022-10-31T06:21:47;13.50;99.90
19437;DHT22;9854;50.968;4.168;2022-10-31T06:24:12;13.50;99.90
19437;DHT22;9854;50.968;4.168;2022-10-31T06:26:38;13.70;99.90
19437;DHT22;9854;50.968;4.168;2022-10-31T06:29:04;13.80;99.90
19437;DHT22;9854;50.968;4.168;2022-10-31T06:31:29;13.80;99.90
19437;DHT22;9854;50.968;4.168;2022-10-31T06:33:55;13.80;99.90
19437;DHT22;9854;50.968;4.168;2022-10-31T06:36:21;13.80;99.90
19437;DHT22;9854;50.968;4.168;2022-10-31T06:38:46;13.80;99.90
19437;DHT22;9854;50.968;4.168;2022-10-31T06:41:12;13.80;99.90
19437;DHT22;9854;50.968;4.168;2022-10-31T06:43:37;13.90;99.90
19437;DHT22;9854;50.968;4.168;2022-10-31T06:46:04;14.10;99.90
19437;DHT22;9854;50.968;4.168;2022-10-31T06:48:30;14.40;99.90
19437;DHT22;9854;50.968;4.168;2022-10-31T06:51:01;14.30;99.90
19437;DHT22;9854;50.968;4.168;2022-10-31T06:53:28;14.20;99.90
19437;DHT22;9854;50.968;4.168;2022-10-31T06:55:57;14.20;99.90
19437;DHT22;9854;50.968;4.168;2022-10-31T06:58:23;14.10;99.90
19437;DHT22;9854;50.968;4.168;2022-10-31T07:00:48;14.10;99.90
19437;DHT22;9854;50.968;4.168;2022-10-31T07:03:15;14.10;99.90
19437;DHT22;9854;50.968;4.168;2022-10-31T07:05:44;14.20;99.90
19437;DHT22;9854;50.968;4.168;2022-10-31T07:08:13;14.20;99.90
19437;DHT22;9854;50.968;4.168;2022-10-31T07:10:41;14.30;99.90
19437;DHT22;9854;50.968;4.168;2022-10-31T07:13:14;14.30;99.90
19437;DHT22;9854;50.968;4.168;2022-10-31T07:15:41;14.40;99.90
19437;DHT22;9854;50.968;4.168;2022-10-31T07:18:09;14.40;99.90
19437;DHT22;9854;50.968;4.168;2022-10-31T07:20:35;14.50;99.90
19437;DHT22;9854;50.968;4.168;2022-10-31T07:23:01;14.60;99.90
19437;DHT22;9854;50.968;4.168;2022-10-31T07:25:27;14.50;99.90
19437;DHT22;9854;50.968;4.168;2022-10-31T07:27:52;14.50;99.90
19437;DHT22;9854;50.968;4.168;2022-10-31T07:30:18;14.70;99.90
19437;DHT22;9854;50.968;4.168;2022-10-31T07:32:46;14.70;99.90
19437;DHT22;9854;50.968;4.168;2022-10-31T07:35:14;14.70;99.90
19437;DHT22;9854;50.968;4.168;2022-10-31T07:37:40;14.80;99.90
19437;DHT22;9854;50.968;4.168;2022-10-31T07:40:07;14.90;99.90
19437;DHT22;9854;50.968;4.168;2022-10-31T07:42:36;14.90;99.90
19437;DHT22;9854;50.968;4.168;2022-10-31T07:45:03;14.90;99.90
19437;DHT22;9854;50.968;4.168;2022-10-31T07:47:29;14.90;99.90
19437;DHT22;9854;50.968;4.168;2022-10-31T07:49:54;15.10;99.90
19437;DHT22;9854;50.968;4.168;2022-10-31T07:52:20;15.10;99.90
19437;DHT22;9854;50.968;4.168;2022-10-31T07:54:46;15.00;99.90
19437;DHT22;9854;50.968;4.168;2022-10-31T07:57:11;15.10;99.90
19437;DHT22;9854;50.968;4.168;2022-10-31T07:59:37;15.10;99.90
19437;DHT22;9854;50.968;4.168;2022-10-31T08:02:03;15.20;99.90
19437;DHT22;9854;50.968;4.168;2022-10-31T08:04:28;15.10;99.90
19437;DHT22;9854;50.968;4.168;2022-10-31T08:06:54;15.10;99.90
19437;DHT22;9854;50.968;4.168;2022-10-31T08:09:19;15.20;99.90
19437;DHT22;9854;50.968;4.168;2022-10-31T08:11:45;15.20;99.90
19437;DHT22;9854;50.968;4.168;2022-10-31T08:14:11;15.30;99.90
19437;DHT22;9854;50.968;4.168;2022-10-31T08:16:36;15.40;99.90
19437;DHT22;9854;50.968;4.168;2022-10-31T08:19:02;15.30;99.90
19437;DHT22;9854;50.968;4.168;2022-10-31T08:21:27;15.50;99.90
19437;DHT22;9854;50.968;4.168;2022-10-31T08:23:53;15.60;99.90
19437;DHT22;9854;50.968;4.168;2022-10-31T08:26:18;15.60;99.90
19437;DHT22;9854;50.968;4.168;2022-10-31T08:28:44;15.70;99.90
19437;DHT22;9854;50.968;4.168;2022-10-31T08:31:10;15.90;99.90
19437;DHT22;9854;50.968;4.168;2022-10-31T08:33:35;16.00;99.90
19437;DHT22;9854;50.968;4.168;2022-10-31T08:36:01;16.10;99.90
19437;DHT22;9854;50.968;4.168;2022-10-31T08:38:27;16.20;99.90
19437;DHT22;9854;50.968;4.168;2022-10-31T08:40:52;16.20;99.90
19437;DHT22;9854;50.968;4.168;2022-10-31T08:43:18;16.20;99.90
19437;DHT22;9854;50.968;4.168;2022-10-31T08:45:47;16.20;99.90
19437;DHT22;9854;50.968;4.168;2022-10-31T08:48:15;16.20;99.90
19437;DHT22;9854;50.968;4.168;2022-10-31T08:50:42;16.20;99.90
19437;DHT22;9854;50.968;4.168;2022-10-31T08:53:12;16.30;99.90
19437;DHT22;9854;50.968;4.168;2022-10-31T08:55:39;16.30;99.90
19437;DHT22;9854;50.968;4.168;2022-10-31T08:58:08;16.30;99.90
19437;DHT22;9854;50.968;4.168;2022-10-31T09:00:34;16.30;99.90
19437;DHT22;9854;50.968;4.168;2022-10-31T09:03:03;16.30;99.90
19437;DHT22;9854;50.968;4.168;2022-10-31T09:05:29;16.40;99.90
19437;DHT22;9854;50.968;4.168;2022-10-31T09:07:58;16.30;99.90
19437;DHT22;9854;50.968;4.168;2022-10-31T09:10:25;16.30;99.90
19437;DHT22;9854;50.968;4.168;2022-10-31T09:13:05;16.30;99.90
19437;DHT22;9854;50.968;4.168;2022-10-31T09:15:34;16.30;99.90
19437;DHT22;9854;50.968;4.168;2022-10-31T09:18:02;16.20;99.90
19437;DHT22;9854;50.968;4.168;2022-10-31T09:20:28;16.30;99.90
19437;DHT22;9854;50.968;4.168;2022-10-31T09:23:00;16.20;99.90
19437;DHT22;9854;50.968;4.168;2022-10-31T09:25:27;16.20;99.90
19437;DHT22;9854;50.968;4.168;2022-10-31T09:27:57;16.20;99.90
19437;DHT22;9854;50.968;4.168;2022-10-31T09:30:27;16.10;99.90
19437;DHT22;9854;50.968;4.168;2022-10-31T09:33:02;16.10;99.90
19437;DHT22;9854;50.968;4.168;2022-10-31T09:35:28;16.20;99.90
19437;DHT22;9854;50.968;4.168;2022-10-31T09:38:02;16.30;99.90
19437;DHT22;9854;50.968;4.168;2022-10-31T09:46:04;16.10;99.90
19437;DHT22;9854;50.968;4.168;2022-10-31T09:51:12;16.40;99.90
19437;DHT22;9854;50.968;4.168;2022-10-31T09:54:01;16.20;99.90
19437;DHT22;9854;50.968;4.168;2022-10-31T09:56:30;16.20;99.90
19437;DHT22;9854;50.968;4.168;2022-10-31T09:58:58;16.20;99.90
19437;DHT22;9854;50.968;4.168;2022-10-31T10:01:40;16.20;99.90
19437;DHT22;9854;50.968;4.168;2022-10-31T10:04:34;16.30;99.90
19437;DHT22;9854;50.968;4.168;2022-10-31T10:06:57;16.40;99.90
19437;DHT22;9854;50.968;4.168;2022-10-31T10:09:27;16.30;99.90
19437;DHT22;9854;50.968;4.168;2022-10-31T10:12:16;16.30;99.90
19437;DHT22;9854;50.968;4.168;2022-10-31T10:14:57;16.40;99.90
19437;DHT22;9854;50.968;4.168;2022-10-31T10:17:35;16.40;99.90
19437;DHT22;9854;50.968;4.168;2022-10-31T10:20:17;16.40;99.90
19437;DHT22;9854;50.968;4.168;2022-10-31T10:25:34;16.80;99.90
19437;DHT22;9854;50.968;4.168;2022-10-31T10:28:18;17.00;99.90
19437;DHT22;9854;50.968;4.168;2022-10-31T10:30:51;17.30;99.90
19437;DHT22;9854;50.968;4.168;2022-10-31T10:33:27;17.40;99.90
19437;DHT22;9854;50.968;4.168;2022-10-31T10:35:57;17.50;99.90
19437;DHT22;9854;50.968;4.168;2022-10-31T10:38:39;17.50;99.90
19437;DHT22;9854;50.968;4.168;2022-10-31T10:41:19;17.50;99.90
19437;DHT22;9854;50.968;4.168;2022-10-31T10:43:47;17.70;99.90
19437;DHT22;9854;50.968;4.168;2022-10-31T10:49:24;17.80;99.90
19437;DHT22;9854;50.968;4.168;2022-10-31T10:59:53;17.80;99.90
19437;DHT22;9854;50.968;4.168;2022-10-31T11:02:24;17.90;99.90
19437;DHT22;9854;50.968;4.168;2022-10-31T11:04:55;17.90;99.90
19437;DHT22;9854;50.968;4.168;2022-10-31T11:07:21;17.90;99.90
19437;DHT22;9854;50.968;4.168;2022-10-31T11:09:47;18.00;99.90
19437;DHT22;9854;50.968;4.168;2022-10-31T11:12:30;18.00;99.90
19437;DHT22;9854;50.968;4.168;2022-10-31T11:14:59;18.10;99.90
19437;DHT22;9854;50.968;4.168;2022-10-31T11:17:30;18.20;99.90
19437;DHT22;9854;50.968;4.168;2022-10-31T11:22:30;18.30;99.90
19437;DHT22;9854;50.968;4.168;2022-10-31T11:24:55;18.30;99.90
19437;DHT22;9854;50.968;4.168;2022-10-31T11:27:23;18.30;99.90
19437;DHT22;9854;50.968;4.168;2022-10-31T11:29:50;18.30;99.90
19437;DHT22;9854;50.968;4.168;2022-10-31T11:32:26;18.20;99.90
19437;DHT22;9854;50.968;4.168;2022-10-31T11:34:54;18.30;99.90
19437;DHT22;9854;50.968;4.168;2022-10-31T11:37:26;18.30;99.90
19437;DHT22;9854;50.968;4.168;2022-10-31T11:39:59;18.10;99.90
19437;DHT22;9854;50.968;4.168;2022-10-31T11:42:28;18.00;99.90
19437;DHT22;9854;50.968;4.168;2022-10-31T11:44:55;17.90;99.90
19437;DHT22;9854;50.968;4.168;2022-10-31T11:47:31;18.10;99.90
19437;DHT22;9854;50.968;4.168;2022-10-31T11:50:08;18.30;99.90
19437;DHT22;9854;50.968;4.168;2022-10-31T11:52:37;18.30;99.90
19437;DHT22;9854;50.968;4.168;2022-10-31T11:55:30;18.60;99.90
19437;DHT22;9854;50.968;4.168;2022-10-31T11:57:57;18.60;99.90
19437;DHT22;9854;50.968;4.168;2022-10-31T12:00:28;18.80;99.90
19437;DHT22;9854;50.968;4.168;2022-10-31T12:08:17;19.20;99.90
19437;DHT22;9854;50.968;4.168;2022-10-31T12:15:50;19.20;99.90
19437;DHT22;9854;50.968;4.168;2022-10-31T12:18:39;19.40;99.90
19437;DHT22;9854;50.968;4.168;2022-10-31T12:26:29;19.40;99.90
19437;DHT22;9854;50.968;4.168;2022-10-31T12:34:43;19.90;99.90
19437;DHT22;9854;50.968;4.168;2022-10-31T12:37:26;19.90;99.90
19437;DHT22;9854;50.968;4.168;2022-10-31T12:48:17;20.40;99.90
19437;DHT22;9854;50.968;4.168;2022-10-31T12:53:54;20.30;99.90
19437;DHT22;9854;50.968;4.168;2022-10-31T12:57:07;20.30;99.90
19437;DHT22;9854;50.968;4.168;2022-10-31T12:59:51;20.40;99.90
19437;DHT22;9854;50.968;4.168;2022-10-31T13:02:33;20.60;99.90
19437;DHT22;9854;50.968;4.168;2022-10-31T13:07:47;20.80;99.90
19437;DHT22;9854;50.968;4.168;2022-10-31T13:13:05;21.20;99.90
19437;DHT22;9854;50.968;4.168;2022-10-31T13:15:48;21.10;99.90
19437;DHT22;9854;50.968;4.168;2022-10-31T13:20:55;21.40;99.90
19437;DHT22;9854;50.968;4.168;2022-10-31T13:23:27;21.60;99.90
19437;DHT22;9854;50.968;4.168;2022-10-31T13:25:55;21.70;99.90
19437;DHT22;9854;50.968;4.168;2022-10-31T13:28:47;21.70;99.90
19437;DHT22;9854;50.968;4.168;2022-10-31T13:31:14;22.10;99.90
19437;DHT22;9854;50.968;4.168;2022-10-31T13:33:50;22.30;99.90
19437;DHT22;9854;50.968;4.168;2022-10-31T13:36:39;22.50;99.90
19437;DHT22;9854;50.968;4.168;2022-10-31T13:45:23;23.10;99.90
19437;DHT22;9854;50.968;4.168;2022-10-31T13:50:39;23.00;99.90
19437;DHT22;9854;50.968;4.168;2022-10-31T13:53:14;23.00;99.90
19437;DHT22;9854;50.968;4.168;2022-10-31T13:55:46;23.10;99.90
19437;DHT22;9854;50.968;4.168;2022-10-31T13:58:28;22.60;99.90
19437;DHT22;9854;50.968;4.168;2022-10-31T14:01:21;22.80;99.90
19437;DHT22;9854;50.968;4.168;2022-10-31T14:06:55;22.70;99.90
19437;DHT22;9854;50.968;4.168;2022-10-31T14:11:48;22.70;99.90
19437;DHT22;9854;50.968;4.168;2022-10-31T14:14:15;22.70;99.90
19437;DHT22;9854;50.968;4.168;2022-10-31T14:16:44;22.80;99.90
19437;DHT22;9854;50.968;4.168;2022-10-31T14:19:18;22.80;99.90
19437;DHT22;9854;50.968;4.168;2022-10-31T14:21:46;22.80;99.90
19437;DHT22;9854;50.968;4.168;2022-10-31T14:27:02;22.80;99.90
19437;DHT22;9854;50.968;4.168;2022-10-31T14:29:33;22.60;99.90
19437;DHT22;9854;50.968;4.168;2022-10-31T14:34:41;21.90;99.90
19437;DHT22;9854;50.968;4.168;2022-10-31T14:37:35;21.30;99.90
19437;DHT22;9854;50.968;4.168;2022-10-31T14:50:37;21.60;99.90
19437;DHT22;9854;50.968;4.168;2022-10-31T14:53:06;21.60;99.90
19437;DHT22;9854;50.968;4.168;2022-10-31T14:55:36;21.40;99.90
19437;DHT22;9854;50.968;4.168;2022-10-31T14:58:06;21.50;99.90
19437;DHT22;9854;50.968;4.168;2022-10-31T15:00:33;21.30;99.90
19437;DHT22;9854;50.968;4.168;2022-10-31T15:05:42;21.60;99.90
19437;DHT22;9854;50.968;4.168;2022-10-31T15:08:37;21.70;99.90
19437;DHT22;9854;50.968;4.168;2022-10-31T15:11:08;21.60;99.90
19437;DHT22;9854;50.968;4.168;2022-10-31T15:13:34;21.60;99.90
19437;DHT22;9854;50.968;4.168;2022-10-31T15:16:00;21.60;99.90
19437;DHT22;9854;50.968;4.168;2022-10-31T15:18:27;21.40;99.90
19437;DHT22;9854;50.968;4.168;2022-10-31T15:20:54;21.50;99.90
19437;DHT22;9854;50.968;4.168;2022-10-31T15:23:27;21.50;99.90
19437;DHT22;9854;50.968;4.168;2022-10-31T15:26:04;21.20;99.90
19437;DHT22;9854;50.968;4.168;2022-10-31T15:28:30;21.10;99.90
19437;DHT22;9854;50.968;4.168;2022-10-31T15:31:01;20.90;99.90
19437;DHT22;9854;50.968;4.168;2022-10-31T15:33:30;20.90;99.90
19437;DHT22;9854;50.968;4.168;2022-10-31T15:35:58;20.60;99.90
19437;DHT22;9854;50.968;4.168;2022-10-31T15:38:24;20.40;99.90
19437;DHT22;9854;50.968;4.168;2022-10-31T15:41:05;20.40;99.90
19437;DHT22;9854;50.968;4.168;2022-10-31T15:43:38;20.40;99.90
19437;DHT22;9854;50.968;4.168;2022-10-31T15:46:07;20.20;99.90
19437;DHT22;9854;50.968;4.168;2022-10-31T15:48:35;20.10;99.90
19437;DHT22;9854;50.968;4.168;2022-10-31T15:51:01;20.10;99.90
19437;DHT22;9854;50.968;4.168;2022-10-31T15:56:01;20.10;99.90
19437;DHT22;9854;50.968;4.168;2022-10-31T15:58:28;20.00;99.90
19437;DHT22;9854;50.968;4.168;2022-10-31T16:01:03;19.80;99.90
19437;DHT22;9854;50.968;4.168;2022-10-31T16:03:31;19.80;99.90
19437;DHT22;9854;50.968;4.168;2022-10-31T16:05:59;19.70;99.90
19437;DHT22;9854;50.968;4.168;2022-10-31T16:08:35;19.70;99.90
19437;DHT22;9854;50.968;4.168;2022-10-31T16:13:40;19.40;99.90
19437;DHT22;9854;50.968;4.168;2022-10-31T16:16:16;19.30;99.90
19437;DHT22;9854;50.968;4.168;2022-10-31T16:18:43;19.20;99.90
19437;DHT22;9854;50.968;4.168;2022-10-31T16:21:09;19.00;99.90
19437;DHT22;9854;50.968;4.168;2022-10-31T16:23:37;18.90;99.90
19437;DHT22;9854;50.968;4.168;2022-10-31T16:26:07;18.80;99.90
19437;DHT22;9854;50.968;4.168;2022-10-31T16:28:33;18.70;99.90
19437;DHT22;9854;50.968;4.168;2022-10-31T16:30:59;18.50;99.90
19437;DHT22;9854;50.968;4.168;2022-10-31T16:33:33;18.40;99.90
19437;DHT22;9854;50.968;4.168;2022-10-31T16:38:53;18.30;99.90
19437;DHT22;9854;50.968;4.168;2022-10-31T16:41:19;18.10;99.90
19437;DHT22;9854;50.968;4.168;2022-10-31T16:43:45;18.00;99.90
19437;DHT22;9854;50.968;4.168;2022-10-31T16:46:15;18.00;99.90
19437;DHT22;9854;50.968;4.168;2022-10-31T16:48:43;17.90;99.90
19437;DHT22;9854;50.968;4.168;2022-10-31T16:51:09;17.90;99.90
19437;DHT22;9854;50.968;4.168;2022-10-31T16:53:35;17.90;99.90
19437;DHT22;9854;50.968;4.168;2022-10-31T16:56:03;17.90;99.90
19437;DHT22;9854;50.968;4.168;2022-10-31T16:58:31;17.80;99.90
19437;DHT22;9854;50.968;4.168;2022-10-31T17:00:59;17.70;99.90
19437;DHT22;9854;50.968;4.168;2022-10-31T17:03:25;17.70;99.90
19437;DHT22;9854;50.968;4.168;2022-10-31T17:05:50;17.60;99.90
19437;DHT22;9854;50.968;4.168;2022-10-31T17:08:16;17.50;99.90
19437;DHT22;9854;50.968;4.168;2022-10-31T17:10:42;17.60;99.90
19437;DHT22;9854;50.968;4.168;2022-10-31T17:13:17;17.60;99.90
19437;DHT22;9854;50.968;4.168;2022-10-31T17:15:47;17.80;99.90
19437;DHT22;9854;50.968;4.168;2022-10-31T17:18:15;17.80;99.90
19437;DHT22;9854;50.968;4.168;2022-10-31T17:20:41;17.70;99.90
19437;DHT22;9854;50.968;4.168;2022-10-31T17:23:13;17.70;99.90
19437;DHT22;9854;50.968;4.168;2022-10-31T17:25:40;18.00;99.90
19437;DHT22;9854;50.968;4.168;2022-10-31T17:28:06;18.20;99.90
19437;DHT22;9854;50.968;4.168;2022-10-31T17:30:32;18.40;99.90
19437;DHT22;9854;50.968;4.168;2022-10-31T17:32:59;18.50;99.90
19437;DHT22;9854;50.968;4.168;2022-10-31T17:35:24;18.40;99.90
19437;DHT22;9854;50.968;4.168;2022-10-31T17:37:50;18.60;99.90
19437;DHT22;9854;50.968;4.168;2022-10-31T17:40:18;18.40;99.90
19437;DHT22;9854;50.968;4.168;2022-10-31T17:42:51;18.40;99.90
19437;DHT22;9854;50.968;4.168;2022-10-31T17:45:17;18.50;99.90
19437;DHT22;9854;50.968;4.168;2022-10-31T17:47:46;18.50;99.90
19437;DHT22;9854;50.968;4.168;2022-10-31T17:50:11;18.40;99.90
19437;DHT22;9854;50.968;4.168;2022-10-31T17:52:37;18.30;99.90
19437;DHT22;9854;50.968;4.168;2022-10-31T17:55:03;18.20;99.90
19437;DHT22;9854;50.968;4.168;2022-10-31T17:57:32;18.30;99.90
19437;DHT22;9854;50.968;4.168;2022-10-31T17:59:59;18.30;99.90
19437;DHT22;9854;50.968;4.168;2022-10-31T18:02:24;18.20;99.90
19437;DHT22;9854;50.968;4.168;2022-10-31T18:04:50;18.30;99.90
19437;DHT22;9854;50.968;4.168;2022-10-31T18:07:16;18.20;99.90
19437;DHT22;9854;50.968;4.168;2022-10-31T18:09:45;18.30;99.90
19437;DHT22;9854;50.968;4.168;2022-10-31T18:12:11;18.40;99.90
19437;DHT22;9854;50.968;4.168;2022-10-31T18:14:36;18.40;99.90
19437;DHT22;9854;50.968;4.168;2022-10-31T18:17:02;18.40;99.90
19437;DHT22;9854;50.968;4.168;2022-10-31T18:19:28;18.40;99.90
19437;DHT22;9854;50.968;4.168;2022-10-31T18:21:53;18.40;99.90
19437;DHT22;9854;50.968;4.168;2022-10-31T18:24:19;18.40;99.90
19437;DHT22;9854;50.968;4.168;2022-10-31T18:26:45;18.40;99.90
19437;DHT22;9854;50.968;4.168;2022-10-31T18:29:10;18.40;99.90